createdAt,value
2023-05-21T00:00:39.253Z,99.45
2023-05-21T00:01:39.244Z,99.35
2023-05-21T00:02:39.241Z,99.35
2023-05-21T00:03:39.260Z,99.45
2023-05-21T00:04:39.501Z,99.76
2023-05-21T00:05:39.257Z,99.91
2023-05-21T00:06:39.140Z,99.86
2023-05-21T00:07:39.276Z,99.76
2023-05-21T00:08:39.006Z,99.60
2023-05-21T00:09:39.003Z,99.29
2023-05-21T00:10:39.105Z,98.89
2023-05-21T00:11:38.999Z,98.99
2023-05-21T00:12:38.999Z,99.09
2023-05-21T00:13:39.068Z,99.29
2023-05-21T00:14:39.140Z,99.40
2023-05-21T00:15:39.187Z,99.40
2023-05-21T00:16:38.977Z,99.50
2023-05-21T00:17:39.461Z,99.60
2023-05-21T00:18:39.046Z,99.70
2023-05-21T00:19:39.098Z,99.70
2023-05-21T00:20:39.417Z,99.70
2023-05-21T00:21:39.019Z,99.60
2023-05-21T00:22:39.017Z,99.60
2023-05-21T00:23:39.340Z,99.50
2023-05-21T00:24:38.946Z,99.60
2023-05-21T00:25:38.946Z,99.70
2023-05-21T00:26:38.897Z,99.95
2023-05-21T00:27:38.886Z,99.99
2023-05-21T00:28:38.864Z,99.99
2023-05-21T00:29:39.010Z,99.99
2023-05-21T00:30:39.050Z,99.99
2023-05-21T00:31:39.104Z,99.99
2023-05-21T00:32:39.145Z,99.99
2023-05-21T00:33:39.004Z,99.99
2023-05-21T00:34:39.018Z,99.99
2023-05-21T00:35:38.835Z,99.99
2023-05-21T00:36:38.809Z,99.99
2023-05-21T00:37:38.820Z,99.99
2023-05-21T00:38:38.791Z,99.99
2023-05-21T00:39:38.932Z,99.99
2023-05-21T00:42:04.741Z,99.99
2023-05-21T00:43:05.137Z,99.99
2023-05-21T00:44:04.765Z,99.99
2023-05-21T00:45:04.729Z,99.99
2023-05-21T00:46:04.774Z,99.99
2023-05-21T00:47:04.706Z,99.99
2023-05-21T00:48:04.713Z,99.99
2023-05-21T00:49:05.014Z,99.99
2023-05-21T00:50:05.337Z,99.99
2023-05-21T00:51:04.954Z,99.99
2023-05-21T00:52:04.940Z,99.99
2023-05-21T00:53:04.692Z,99.99
2023-05-21T00:54:04.853Z,99.99
2023-05-21T00:55:04.668Z,99.99
2023-05-21T00:56:04.653Z,99.99
2023-05-21T00:57:04.769Z,99.99
2023-05-21T00:58:04.727Z,99.99
2023-05-21T00:59:05.093Z,99.99
2023-05-21T01:00:04.700Z,99.99
2023-05-21T01:01:04.820Z,99.99
2023-05-21T01:02:05.077Z,99.99
2023-05-21T01:03:04.704Z,99.99
2023-05-21T01:04:04.614Z,99.99
2023-05-21T01:05:04.646Z,99.99
2023-05-21T01:06:04.594Z,99.99
2023-05-21T01:07:04.606Z,99.99
2023-05-21T01:08:04.567Z,99.99
2023-05-21T01:09:05.384Z,99.99
2023-05-21T01:10:04.566Z,99.99
2023-05-21T01:11:04.548Z,99.99
2023-05-21T01:12:04.532Z,99.99
2023-05-21T01:13:04.600Z,99.99
2023-05-21T01:14:04.611Z,99.99
2023-05-21T01:15:04.601Z,99.99
2023-05-21T01:16:04.613Z,99.99
2023-05-21T01:17:04.549Z,99.99
2023-05-21T01:18:04.621Z,99.99
2023-05-21T01:19:04.631Z,99.99
2023-05-21T01:20:04.987Z,99.99
2023-05-21T01:21:04.699Z,99.99
2023-05-21T01:22:04.469Z,99.99
2023-05-21T01:23:04.455Z,99.99
2023-05-21T01:24:04.774Z,99.99
2023-05-21T01:25:04.470Z,99.99
2023-05-21T01:26:04.703Z,99.99
2023-05-21T01:27:04.435Z,99.99
2023-05-21T01:28:04.600Z,99.99
2023-05-21T01:29:04.449Z,99.99
2023-05-21T01:30:04.646Z,99.99
2023-05-21T01:31:04.931Z,99.99
2023-05-21T01:32:04.564Z,99.99
2023-05-21T01:33:04.545Z,99.99
2023-05-21T01:34:04.603Z,99.99
2023-05-21T01:35:04.458Z,99.99
2023-05-21T01:36:04.381Z,99.99
2023-05-21T01:37:04.437Z,99.99
2023-05-21T01:38:04.385Z,99.99
2023-05-21T01:39:04.435Z,99.99
2023-05-21T01:40:04.661Z,99.99
2023-05-21T01:41:04.742Z,99.99
2023-05-21T01:42:04.448Z,99.99
2023-05-21T01:43:04.335Z,99.99
2023-05-21T01:44:04.960Z,99.99
2023-05-21T01:45:04.391Z,99.99
2023-05-21T01:46:04.349Z,99.99
2023-05-21T01:47:04.289Z,99.99
2023-05-21T01:48:04.336Z,99.99
2023-05-21T01:49:04.289Z,99.99
2023-05-21T01:50:04.306Z,99.99
2023-05-21T01:51:04.319Z,99.99
2023-05-21T01:52:04.283Z,99.99
2023-05-21T01:53:04.343Z,99.99
2023-05-21T01:54:04.292Z,99.99
2023-05-21T01:55:04.291Z,99.99
